Time;durP1;ratioP1;P1;durP2;ratioP2;P2;SDS_P1;SDS_P2;PMS_P1;PMS_P2;Temp;Humidity;BMP_temperature;BMP_pressure;BME280_temperature;BME280_humidity;BME280_pressure;Samples;Min_cycle;Max_cycle;Signal;HPM_P1;HPM_P2
2022/06/12 00:01:32;;;;;;;27.50;19.03;;;;;;;18.07;100.00;99882.14;1774699;80;21101;-59
2022/06/12 00:03:59;;;;;;;25.50;18.30;;;;;;;18.07;100.00;99877.70;1776725;80;21035;-57
2022/06/12 00:06:27;;;;;;;26.07;18.07;;;;;;;18.06;100.00;99882.67;1764044;80;21563;-65
2022/06/12 00:08:55;;;;;;;25.70;18.93;;;;;;;18.03;100.00;99877.87;1758672;80;21027;-60
2022/06/12 00:11:24;;;;;;;26.53;18.03;;;;;;;18.03;100.00;99877.87;1762624;80;21846;-58
2022/06/12 00:13:57;;;;;;;23.80;18.10;;;;;;;17.98;100.00;99881.76;1758151;80;21006;-57
2022/06/12 00:16:24;;;;;;;27.00;20.23;;;;;;;17.95;100.00;99875.12;1753213;80;20994;-57
2022/06/12 00:18:51;;;;;;;26.07;21.00;;;;;;;17.95;100.00;99873.00;1760926;80;20975;-66
2022/06/12 00:21:19;;;;;;;31.40;21.33;;;;;;;17.96;100.00;99870.14;1753233;80;21069;-58
2022/06/12 00:23:54;;;;;;;25.43;20.40;;;;;;;17.94;100.00;99869.57;1776113;80;21053;-56
2022/06/12 00:26:29;;;;;;;28.20;19.73;;;;;;;17.97;100.00;99868.30;1773152;80;20982;-58
2022/06/12 00:29:25;;;;;;;26.87;19.97;;;;;;;18.02;100.00;99867.05;1755158;80;21062;-55
2022/06/12 00:32:01;;;;;;;27.83;19.93;;;;;;;18.02;100.00;99864.94;1760385;79;21042;-56
2022/06/12 00:34:33;;;;;;;27.97;19.60;;;;;;;17.91;100.00;99862.14;1758377;80;21360;-57
2022/06/12 00:36:59;;;;;;;;;;;;;;;17.86;100.00;99859.95;1777259;80;23800;-55
2022/06/12 00:39:27;;;;;;;26.37;18.87;;;;;;;17.80;100.00;99858.27;1764455;80;20131;-55
2022/06/12 00:41:56;;;;;;;26.50;18.33;;;;;;;17.77;100.00;99854.78;1754282;80;21053;-55
2022/06/12 00:44:31;;;;;;;26.73;19.80;;;;;;;17.74;100.00;99852.10;1754455;80;21088;-56
2022/06/12 00:47:02;;;;;;;23.70;17.93;;;;;;;17.74;100.00;99860.80;1774112;80;21091;-57
2022/06/12 00:49:40;;;;;;;27.40;18.15;;;;;;;17.69;100.00;99855.95;1762759;80;21216;-56
2022/06/12 00:52:18;;;;;;;25.53;17.30;;;;;;;17.63;100.00;99855.09;1756664;80;21015;-64
2022/06/12 00:54:47;;;;;;;24.90;17.63;;;;;;;17.60;100.00;99854.77;1769084;80;21109;-57
2022/06/12 00:57:14;;;;;;;25.93;17.10;;;;;;;17.56;100.00;99859.71;1750889;80;21055;-55
2022/06/12 00:59:47;;;;;;;23.73;17.27;;;;;;;17.55;100.00;99859.44;1754557;80;21051;-56
2022/06/12 01:02:18;;;;;;;20.80;16.00;;;;;;;17.54;100.00;99857.02;1755288;80;21822;-56
2022/06/12 01:07:37;;;;;;;25.13;17.77;;;;;;;17.46;100.00;99854.27;1768442;79;21032;-63
2022/06/12 01:10:07;;;;;;;25.47;18.13;;;;;;;17.38;100.00;99858.61;1761008;80;21690;-56
2022/06/12 01:12:43;;;;;;;27.48;19.07;;;;;;;17.44;100.00;99859.78;1765906;80;21077;-57
2022/06/12 01:15:16;;;;;;;25.23;17.10;;;;;;;17.36;100.00;99860.17;1761994;79;21193;-63
2022/06/12 01:17:43;;;;;;;24.53;17.53;;;;;;;17.33;100.00;99847.98;1763910;80;21059;-56
2022/06/12 01:20:17;;;;;;;24.57;17.53;;;;;;;17.32;100.00;99846.41;1767675;80;21534;-56
2022/06/12 01:23:16;;;;;;;26.03;17.43;;;;;;;17.32;100.00;99845.08;1768408;80;21016;-56
2022/06/12 01:26:10;;;;;;;26.73;18.93;;;;;;;17.35;100.00;99849.85;1772031;80;21051;-56
2022/06/12 01:28:50;;;;;;;23.47;17.17;;;;;;;17.38;100.00;99854.66;1747595;79;21634;-62
2022/06/12 01:31:45;;;;;;;23.77;16.93;;;;;;;17.39;100.00;99851.80;1714058;82;21094;-56
2022/06/12 01:34:36;;;;;;;26.47;18.07;;;;;;;17.44;100.00;99850.56;1723695;80;21404;-59
2022/06/12 01:37:26;;;;;;;21.43;17.20;;;;;;;17.33;100.00;99850.10;1744123;81;21075;-55
2022/06/12 01:40:23;;;;;;;23.65;17.05;;;;;;;17.30;100.00;99846.62;1737530;81;21115;-56
2022/06/12 01:43:01;;;;;;;23.80;16.93;;;;;;;17.26;100.00;99852.88;1740207;81;22434;-59
2022/06/12 01:45:59;;;;;;;24.50;16.63;;;;;;;17.28;100.00;99849.23;1708216;82;21134;-56
2022/06/12 01:48:58;;;;;;;23.37;17.47;;;;;;;17.31;100.00;99848.73;1733883;81;20935;-62
2022/06/12 01:51:33;;;;;;;24.27;18.53;;;;;;;17.37;100.00;99842.00;1694435;83;21079;-60
2022/06/12 01:54:18;;;;;;;24.53;17.20;;;;;;;17.45;100.00;99850.04;1735712;81;21931;-64
2022/06/12 01:56:56;;;;;;;24.93;18.70;;;;;;;17.58;100.00;99852.38;1732140;81;21179;-57
2022/06/12 01:59:49;;;;;;;25.77;19.70;;;;;;;17.87;100.00;99853.63;1728575;81;21616;-59
2022/06/12 02:02:46;;;;;;;23.37;18.83;;;;;;;18.15;100.00;99857.50;1747883;81;21747;-59
2022/06/12 02:05:45;;;;;;;24.80;19.63;;;;;;;18.51;100.00;99851.36;1755222;80;21020;-58
2022/06/12 02:08:28;;;;;;;28.70;19.47;;;;;;;18.92;100.00;99850.55;1733800;81;21541;-61
2022/06/12 02:14:00;;;;;;;26.17;21.07;;;;;;;19.71;100.00;99851.32;1734522;80;21109;-59
2022/06/12 02:16:34;;;;;;;32.30;24.67;;;;;;;20.22;100.00;99849.52;1722289;81;21899;-58
2022/06/12 02:19:07;;;;;;;27.63;23.57;;;;;;;20.66;100.00;99843.41;1729267;81;21379;-66
2022/06/12 02:21:52;;;;;;;27.73;23.80;;;;;;;21.09;100.00;99836.10;1749486;81;21518;-67
2022/06/12 02:24:39;;;;;;;43.20;34.23;;;;;;;21.58;100.00;99833.78;1743878;81;22388;-58
2022/06/12 02:27:13;;;;;;;45.03;34.43;;;;;;;22.15;100.00;99832.41;1734720;81;21590;-60
2022/06/12 02:29:49;;;;;;;46.17;35.67;;;;;;;22.67;100.00;99831.95;1747356;81;21512;-59
2022/06/12 02:32:25;;;;;;;39.83;34.40;;;;;;;23.12;100.00;99833.33;1748557;80;20952;-62
2022/06/12 02:35:07;;;;;;;46.23;36.87;;;;;;;23.54;100.00;99834.06;1756031;81;21831;-57
2022/06/12 02:37:41;;;;;;;51.53;38.08;;;;;;;23.94;100.00;99830.78;1741754;81;21197;-57
2022/06/12 02:40:16;;;;;;;45.03;37.07;;;;;;;24.32;100.00;99833.56;1743906;81;20949;-61
2022/06/12 02:42:46;;;;;;;43.97;38.03;;;;;;;24.60;100.00;99827.94;1744426;81;21054;-58
2022/06/12 02:45:21;;;;;;;44.67;39.50;;;;;;;24.84;100.00;99828.67;1753570;81;21035;-57
2022/06/12 02:47:48;;;;;;;48.13;39.27;;;;;;;25.07;100.00;99820.88;1737389;81;21123;-61
2022/06/12 02:50:17;;;;;;;45.27;38.90;;;;;;;25.47;100.00;99819.48;1743222;81;21225;-57
2022/06/12 02:53:04;;;;;;;52.17;40.70;;;;;;;25.87;100.00;99826.00;1747191;81;20984;-56
2022/06/12 02:55:44;;;;;;;46.00;38.40;;;;;;;26.32;100.00;99821.41;1745306;81;21007;-65
2022/06/12 02:58:41;;;;;;;49.63;37.87;;;;;;;26.83;100.00;99821.72;1754847;81;21043;-58
2022/06/12 03:01:17;;;;;;;43.68;34.78;;;;;;;27.26;97.19;99821.28;1694890;83;21126;-63
2022/06/12 03:03:58;;;;;;;44.73;36.93;;;;;;;27.80;90.93;99816.72;1725876;82;21309;-58
2022/06/12 03:06:26;;;;;;;40.50;35.98;;;;;;;28.24;85.95;99818.46;1700650;82;21624;-56
2022/06/12 03:08:56;;;;;;;43.02;36.17;;;;;;;28.66;80.55;99816.20;1721349;82;21046;-61
2022/06/12 03:11:36;;;;;;;40.38;33.73;;;;;;;28.96;77.73;99821.73;1726713;82;21042;-57
2022/06/12 03:14:10;;;;;;;36.35;31.62;;;;;;;29.37;74.36;99816.44;1734345;81;20952;-57
2022/06/12 03:16:40;;;;;;;34.50;29.07;;;;;;;29.70;71.00;99805.92;1706638;81;20964;-64
2022/06/12 03:19:18;;;;;;;33.75;26.68;;;;;;;30.10;68.10;99806.95;1732036;82;21070;-56
2022/06/12 03:22:25;;;;;;;32.00;27.00;;;;;;;30.48;64.75;99800.17;1726276;82;21079;-61
2022/06/12 03:25:04;;;;;;;33.05;29.40;;;;;;;30.71;61.17;99797.38;1695775;82;21070;-58
2022/06/12 03:27:57;;;;;;;34.13;28.85;;;;;;;30.98;60.42;99804.14;1710882;83;21098;-59
2022/06/12 03:30:48;;;;;;;36.60;29.52;;;;;;;31.23;58.68;99796.16;1724311;82;21263;-57
2022/06/12 03:33:41;;;;;;;33.45;27.45;;;;;;;31.33;56.76;99800.35;1726873;82;20935;-65
2022/06/12 03:36:26;;;;;;;35.23;28.73;;;;;;;31.26;55.79;99799.55;1724912;82;21680;-57
2022/06/12 03:39:16;;;;;;;32.93;27.15;;;;;;;31.25;56.68;99801.98;1720027;81;21068;-65
2022/06/12 03:42:28;;;;;;;26.57;22.62;;;;;;;31.38;56.24;99804.20;1729834;82;21034;-57
2022/06/12 03:45:12;;;;;;;28.55;22.00;;;;;;;31.40;55.04;99793.86;1722546;81;21141;-57
2022/06/12 03:47:56;;;;;;;23.12;20.45;;;;;;;31.66;54.93;99795.70;1728992;82;21125;-63
2022/06/12 03:50:43;;;;;;;23.65;20.92;;;;;;;32.03;53.09;99802.48;1734654;82;21370;-56
2022/06/12 03:53:24;;;;;;;28.23;22.20;;;;;;;32.33;51.83;99802.23;1710243;82;21015;-58
2022/06/12 03:58:51;;;;;;;30.72;21.07;;;;;;;32.73;49.85;99803.59;1728797;82;21090;-58
2022/06/12 04:01:20;;;;;;;21.75;19.45;;;;;;;32.96;49.06;99797.16;1700211;82;21438;-59
2022/06/12 04:03:47;;;;;;;19.70;17.60;;;;;;;33.18;48.21;99803.31;1713169;82;21018;-58
2022/06/12 04:06:22;;;;;;;21.23;16.35;;;;;;;33.31;47.13;99799.22;1742845;80;21060;-56
2022/06/12 04:09:00;;;;;;;22.17;16.62;;;;;;;33.38;46.43;99800.19;1738746;81;21005;-59
2022/06/12 04:11:29;;;;;;;18.85;15.63;;;;;;;33.44;46.46;99788.54;1749184;81;21537;-58
2022/06/12 04:13:57;;;;;;;18.25;16.23;;;;;;;33.37;45.73;99793.77;1730540;81;21005;-57
2022/06/12 04:16:47;;;;;;;20.10;14.63;;;;;;;33.27;45.77;99798.34;1706209;82;21029;-57
2022/06/12 04:19:18;;;;;;;17.52;15.45;;;;;;;33.18;46.20;99799.27;1739727;82;20960;-57
2022/06/12 04:21:54;;;;;;;21.85;17.42;;;;;;;33.09;46.58;99794.59;1712024;81;21507;-58
2022/06/12 04:24:42;;;;;;;22.60;17.62;;;;;;;32.96;46.44;99794.45;1710840;83;21293;-58
2022/06/12 04:27:17;;;;;;;21.62;17.17;;;;;;;32.81;47.48;99802.70;1705984;83;21515;-58
2022/06/12 04:29:59;;;;;;;27.20;19.77;;;;;;;32.87;48.19;99800.52;1717383;83;20999;-65
2022/06/12 04:32:27;;;;;;;25.88;19.27;;;;;;;32.89;47.03;99799.06;1707242;81;21798;-57
2022/06/12 04:34:55;;;;;;;30.35;20.30;;;;;;;32.84;47.11;99792.53;1755693;79;21110;-54
2022/06/12 04:37:28;;;;;;;27.55;21.45;;;;;;;33.04;46.89;99802.96;1761290;80;22383;-56
2022/06/12 04:39:57;;;;;;;30.72;24.20;;;;;;;33.08;45.68;99801.71;1776404;79;20971;-59
2022/06/12 04:42:25;;;;;;;27.27;22.35;;;;;;;32.98;46.07;99798.93;1774203;79;21054;-57
2022/06/12 04:44:53;;;;;;;29.70;21.80;;;;;;;32.93;46.34;99801.86;1782991;79;21025;-58
2022/06/12 04:47:23;;;;;;;32.85;23.75;;;;;;;32.99;47.26;99800.48;1771021;79;21007;-65
2022/06/12 04:49:52;;;;;;;31.70;25.95;;;;;;;33.39;46.57;99800.97;1776022;79;21174;-57
2022/06/12 04:52:21;;;;;;;28.63;24.20;;;;;;;33.66;45.36;99803.40;1732277;81;21033;-57
2022/06/12 04:54:49;;;;;;;32.25;23.92;;;;;;;33.73;44.88;99799.52;1763273;80;21112;-58
2022/06/12 04:57:16;;;;;;;33.55;26.35;;;;;;;34.00;44.69;99799.21;1773442;79;21054;-58
2022/06/12 04:59:45;;;;;;;36.30;26.90;;;;;;;34.37;43.96;99798.30;1766679;80;21067;-59
2022/06/12 05:02:12;;;;;;;36.30;27.48;;;;;;;34.70;42.47;99801.13;1773157;79;21273;-58
2022/06/12 05:04:41;;;;;;;40.03;29.20;;;;;;;34.94;42.22;99795.20;1776821;79;21022;-56
2022/06/12 05:07:10;;;;;;;36.55;28.55;;;;;;;35.33;41.76;99790.50;1763934;80;21638;-56
2022/06/12 05:09:39;;;;;;;39.67;30.12;;;;;;;35.84;39.66;99790.20;1766104;80;21046;-64
2022/06/12 05:12:08;;;;;;;38.05;29.40;;;;;;;36.20;38.73;99795.57;1760330;80;21534;-55
2022/06/12 05:14:37;;;;;;;41.40;32.80;;;;;;;36.21;38.81;99788.98;1781861;79;21022;-56
2022/06/12 05:17:12;;;;;;;43.00;31.95;;;;;;;36.37;38.14;99790.19;1761837;80;21007;-57
2022/06/12 05:19:41;;;;;;;38.40;31.68;;;;;;;36.55;38.13;99786.34;1779125;79;21008;-61
2022/06/12 05:22:08;;;;;;;41.55;31.73;;;;;;;36.76;37.78;99792.61;1770794;80;21658;-55
2022/06/12 05:24:36;;;;;;;38.23;31.60;;;;;;;37.04;38.00;99784.58;1763257;80;21106;-58
2022/06/12 05:27:08;;;;;;;40.10;32.93;;;;;;;37.52;36.30;99787.37;1762428;80;21260;-56
2022/06/12 05:29:37;;;;;;;38.75;32.38;;;;;;;37.68;34.69;99783.21;1773070;79;21082;-64
2022/06/12 05:32:06;;;;;;;41.58;34.55;;;;;;;37.64;34.57;99785.13;1779421;80;21358;-56
2022/06/12 05:34:34;;;;;;;43.92;36.45;;;;;;;37.63;34.61;99784.94;1781295;79;20983;-57
2022/06/12 05:37:01;;;;;;;47.17;37.33;;;;;;;37.62;34.73;99781.21;1770023;80;21051;-56
2022/06/12 05:39:28;;;;;;;49.53;39.73;;;;;;;37.83;35.05;99773.20;1768079;79;21322;-58
2022/06/12 05:41:55;;;;;;;46.05;35.88;;;;;;;38.17;34.74;99777.12;1776587;79;21543;-55
2022/06/12 05:44:22;;;;;;;47.45;39.15;;;;;;;38.39;33.02;99780.17;1773743;80;20931;-56
2022/06/12 05:46:50;;;;;;;46.15;37.93;;;;;;;38.10;32.52;99781.17;1781355;79;21462;-58
2022/06/12 05:49:17;;;;;;;49.73;40.98;;;;;;;37.66;33.37;99790.98;1779941;79;20872;-57
2022/06/12 05:51:45;;;;;;;39.23;32.35;;;;;;;37.35;33.71;99790.10;1777195;80;21776;-64
2022/06/12 05:54:12;;;;;;;39.80;32.85;;;;;;;37.04;34.00;99785.36;1762879;79;21054;-56
2022/06/12 05:56:39;;;;;;;42.60;35.92;;;;;;;37.10;34.26;99784.45;1776337;79;21004;-57
2022/06/12 05:59:07;;;;;;;51.60;36.85;;;;;;;37.20;33.98;99789.19;1762584;79;20984;-65
2022/06/12 06:01:34;;;;;;;43.83;36.38;;;;;;;37.35;33.80;99784.08;1776548;79;21086;-64
2022/06/12 06:04:01;;;;;;;38.48;34.10;;;;;;;37.37;33.88;99779.06;1766554;79;22355;-56
2022/06/12 06:06:42;;;;;;;46.18;35.48;;;;;;;37.44;33.34;99776.44;1769738;80;21424;-59
2022/06/12 06:09:11;;;;;;;46.50;36.48;;;;;;;37.37;34.32;99776.92;1705692;83;20960;-57
2022/06/12 06:11:40;;;;;;;41.02;35.08;;;;;;;37.50;34.58;99771.41;1688514;83;21307;-56
2022/06/12 06:14:07;;;;;;;39.80;34.03;;;;;;;37.90;35.01;99767.06;1711938;83;21861;-56
2022/06/12 06:16:36;;;;;;;41.48;34.95;;;;;;;38.24;33.09;99760.05;1700906;83;21224;-58
2022/06/12 06:19:03;;;;;;;42.40;33.80;;;;;;;38.11;34.08;99758.22;1685883;83;21550;-56
2022/06/12 06:21:31;;;;;;;35.85;29.42;;;;;;;38.22;33.83;99756.33;1697912;83;21073;-60
2022/06/12 06:23:59;;;;;;;42.33;34.33;;;;;;;38.32;33.44;99760.27;1703635;83;22097;-58
2022/06/12 06:26:27;;;;;;;33.95;29.57;;;;;;;38.11;33.78;99750.86;1691999;83;21094;-56
2022/06/12 06:28:57;;;;;;;34.27;30.57;;;;;;;37.95;33.94;99749.79;1689629;83;22294;-58
2022/06/12 06:31:24;;;;;;;32.70;27.37;;;;;;;38.03;34.29;99751.19;1707330;83;21600;-63
2022/06/12 06:33:51;;;;;;;28.87;25.68;;;;;;;38.17;33.43;99747.19;1690452;83;21084;-56
2022/06/12 06:36:18;;;;;;;25.82;22.27;;;;;;;38.27;33.69;99746.45;1711688;83;21064;-57
2022/06/12 06:38:45;;;;;;;29.65;21.37;;;;;;;38.43;33.26;99751.02;1687480;83;21042;-56
2022/06/12 06:41:14;;;;;;;22.93;20.45;;;;;;;38.30;33.72;99748.42;1706584;83;21459;-63
2022/06/12 06:46:27;;;;;;;23.75;19.05;;;;;;;38.30;33.63;99753.06;1693692;83;21050;-56
2022/06/12 06:48:54;;;;;;;22.42;18.25;;;;;;;38.13;34.07;99758.64;1696387;83;21576;-59
2022/06/12 06:51:21;;;;;;;24.27;19.70;;;;;;;38.23;33.73;99752.47;1693864;83;21571;-57
2022/06/12 06:53:48;;;;;;;22.40;18.45;;;;;;;38.42;33.57;99748.69;1693554;83;21100;-57
2022/06/12 06:56:15;;;;;;;20.60;17.87;;;;;;;38.62;33.45;99745.04;1692099;83;20999;-57
2022/06/12 06:58:43;;;;;;;19.42;14.47;;;;;;;38.74;32.65;99748.77;1693211;83;20995;-56
2022/06/12 07:01:11;;;;;;;17.00;13.70;;;;;;;38.80;32.16;99749.98;1689755;83;21351;-57
2022/06/12 07:03:38;;;;;;;15.43;11.93;;;;;;;38.78;31.65;99751.49;1691762;83;21012;-55
2022/06/12 07:06:05;;;;;;;13.62;11.20;;;;;;;38.52;31.21;99744.42;1698934;83;21284;-56
2022/06/12 07:08:32;;;;;;;17.35;13.28;;;;;;;38.24;32.21;99747.22;1716937;81;21034;-64
2022/06/12 07:11:00;;;;;;;18.52;12.23;;;;;;;37.98;31.69;99743.59;1708549;83;21385;-56
2022/06/12 07:13:27;;;;;;;11.85;9.98;;;;;;;37.65;32.67;99736.95;1705789;83;21076;-63
2022/06/12 07:15:55;;;;;;;8.40;5.20;;;;;;;37.51;32.65;99740.38;1720993;81;20989;-55
2022/06/12 07:18:24;;;;;;;8.53;7.28;;;;;;;37.32;31.74;99742.72;1713260;81;21040;-64
2022/06/12 07:20:55;;;;;;;8.78;5.95;;;;;;;37.04;32.98;99740.52;1706204;82;21091;-57
2022/06/12 07:23:23;;;;;;;7.65;6.00;;;;;;;37.02;32.55;99741.48;1705501;83;20972;-58
2022/06/12 07:25:57;;;;;;;6.70;4.72;;;;;;;36.99;32.38;99739.52;1720656;81;20960;-57
2022/06/12 07:28:24;;;;;;;9.58;5.65;;;;;;;36.96;31.87;99753.84;1713603;81;21128;-64
2022/06/12 07:30:51;;;;;;;8.33;5.87;;;;;;;36.77;32.19;99736.55;1710269;83;21655;-56
2022/06/12 07:33:19;;;;;;;7.15;5.72;;;;;;;36.78;32.30;99737.33;1723057;81;21058;-56
2022/06/12 07:35:46;;;;;;;7.12;5.42;;;;;;;36.91;32.42;99737.86;1722759;81;21345;-57
2022/06/12 07:38:15;;;;;;;6.40;4.92;;;;;;;37.00;30.55;99732.34;1714825;83;21515;-56
2022/06/12 07:40:46;;;;;;;6.62;5.05;;;;;;;36.89;30.27;99740.16;1706682;83;21028;-56
2022/06/12 07:43:14;;;;;;;6.72;5.15;;;;;;;36.72;30.75;99731.47;1710154;83;21324;-62
2022/06/12 07:45:41;;;;;;;7.72;6.22;;;;;;;36.80;31.28;99726.89;1702355;81;21075;-56
2022/06/12 07:48:09;;;;;;;5.50;4.92;;;;;;;37.07;31.25;99732.20;1708105;83;21452;-56
2022/06/12 07:50:37;;;;;;;5.92;4.65;;;;;;;37.21;30.74;99732.34;1712034;81;20944;-57
2022/06/12 07:53:04;;;;;;;7.37;5.75;;;;;;;37.23;30.04;99727.30;1710568;83;21456;-59
2022/06/12 07:55:32;;;;;;;7.33;5.87;;;;;;;37.20;30.45;99719.33;1699625;82;21525;-56
2022/06/12 07:58:00;;;;;;;6.55;5.00;;;;;;;37.40;30.93;99725.30;1710406;82;20976;-56
2022/06/12 08:00:28;;;;;;;6.15;5.17;;;;;;;37.42;30.32;99724.36;1709959;83;21070;-63
2022/06/12 08:02:55;;;;;;;9.63;6.08;;;;;;;37.40;30.11;99725.89;1711100;81;21520;-57
2022/06/12 08:05:22;;;;;;;13.75;11.95;;;;;;;37.32;30.33;99715.53;1721310;83;21102;-56
2022/06/12 08:07:50;;;;;;;11.15;10.05;;;;;;;37.20;30.82;99714.45;1702687;83;21262;-56
2022/06/12 08:10:17;;;;;;;11.20;8.88;;;;;;;36.83;29.88;99724.78;1699478;83;20985;-64
2022/06/12 08:12:45;;;;;;;10.00;7.67;;;;;;;36.54;29.65;99711.48;1710783;83;20944;-56
2022/06/12 08:15:20;;;;;;;9.68;7.92;;;;;;;36.49;30.94;99711.83;1706619;83;20991;-60
2022/06/12 08:17:47;;;;;;;10.70;8.40;;;;;;;36.85;30.05;99711.59;1696128;83;21823;-56
2022/06/12 08:20:28;;;;;;;13.85;9.78;;;;;;;36.99;30.61;99713.70;1706991;83;21164;-65
2022/06/12 08:23:01;;;;;;;13.55;10.65;;;;;;;37.37;31.61;99701.58;1710637;83;20953;-65
2022/06/12 08:25:29;;;;;;;16.87;12.93;;;;;;;37.99;31.15;99699.47;1699125;83;21583;-57
2022/06/12 08:27:57;;;;;;;27.15;12.95;;;;;;;38.51;29.56;99697.94;1701340;83;21581;-64
2022/06/12 08:30:24;;;;;;;15.43;11.70;;;;;;;38.55;30.30;99702.80;1708641;83;21082;-57
2022/06/12 08:32:52;;;;;;;17.20;11.63;;;;;;;38.81;30.79;99701.71;1702687;83;21461;-56
2022/06/12 08:35:24;;;;;;;15.68;11.53;;;;;;;39.22;29.21;99694.52;1707080;83;21071;-56
2022/06/12 08:37:51;;;;;;;16.12;11.57;;;;;;;39.92;29.13;99686.62;1712661;82;21091;-57
2022/06/12 08:40:42;;;;;;;12.75;9.58;;;;;;;40.76;27.91;99687.95;1698768;83;20938;-57
2022/06/12 08:43:20;;;;;;;11.57;9.00;;;;;;;41.10;27.00;99682.63;1701445;83;21005;-58
2022/06/12 08:45:49;;;;;;;11.43;9.28;;;;;;;41.09;27.19;99670.92;1695545;83;21145;-65
2022/06/12 08:48:30;;;;;;;11.22;8.98;;;;;;;40.82;26.53;99667.23;1702975;83;21090;-56
2022/06/12 08:51:15;;;;;;;12.68;10.28;;;;;;;40.06;27.10;99680.52;1714422;82;21146;-57
2022/06/12 08:53:50;;;;;;;10.08;8.80;;;;;;;39.41;28.35;99683.23;1713445;83;21027;-56
2022/06/12 08:56:27;;;;;;;11.95;8.30;;;;;;;38.57;29.79;99687.64;1696278;83;21710;-58
2022/06/12 08:59:12;;;;;;;12.13;8.73;;;;;;;38.08;30.17;99685.53;1700366;82;21994;-55
2022/06/12 09:01:41;;;;;;;11.75;8.25;;;;;;;37.65;29.31;99683.33;1709254;83;21099;-56
2022/06/12 09:04:15;;;;;;;11.70;7.67;;;;;;;36.98;30.34;99692.55;1705162;83;20956;-57
2022/06/12 09:06:47;;;;;;;11.00;7.17;;;;;;;36.49;30.37;99707.75;1678708;83;21076;-56
2022/06/12 09:09:34;;;;;;;14.45;7.05;;;;;;;35.46;31.06;99686.19;1703836;83;21135;-58
2022/06/12 09:12:26;;;;;;;11.95;7.25;;;;;;;34.43;32.34;99688.41;1695948;83;21441;-58
2022/06/12 09:15:11;;;;;;;11.90;6.72;;;;;;;33.62;35.16;99695.20;1699072;83;21082;-56
2022/06/12 09:18:00;;;;;;;10.35;6.80;;;;;;;32.81;38.65;99696.07;1701199;83;21169;-57
2022/06/12 09:20:58;;;;;;;10.43;7.22;;;;;;;31.76;45.44;99689.95;1698625;83;21067;-57
2022/06/12 09:23:42;;;;;;;13.98;8.70;;;;;;;30.67;62.76;99688.85;1708224;83;22394;-58
2022/06/12 09:26:18;;;;;;;10.23;7.22;;;;;;;29.63;90.25;99689.60;1703571;83;21881;-63
2022/06/12 09:29:25;;;;;;;10.08;7.67;;;;;;;28.76;100.00;99696.53;1693841;83;21310;-58
2022/06/12 09:32:05;;;;;;;10.20;7.60;;;;;;;27.98;100.00;99711.77;1714994;82;21465;-57
2022/06/12 09:34:43;;;;;;;10.58;8.68;;;;;;;27.01;100.00;99707.60;1715098;82;21082;-65
2022/06/12 09:40:39;;;;;;;12.93;9.93;;;;;;;26.12;100.00;99691.17;1698992;83;21217;-63
2022/06/12 09:43:33;;;;;;;13.40;10.43;;;;;;;25.91;100.00;99694.84;1701766;83;20953;-60
2022/06/12 09:46:23;;;;;;;24.57;10.93;;;;;;;25.79;100.00;99687.85;1702065;83;21041;-58
2022/06/12 09:49:34;;;;;;;12.05;10.23;;;;;;;25.51;100.00;99686.26;1710213;83;20984;-64
2022/06/12 09:52:21;;;;;;;13.45;11.18;;;;;;;25.22;100.00;99680.63;1699767;83;21046;-58
2022/06/12 09:55:09;;;;;;;16.60;11.17;;;;;;;24.96;100.00;99686.91;1700062;83;21347;-64
2022/06/12 09:57:51;;;;;;;12.77;10.57;;;;;;;24.87;100.00;99682.02;1711159;83;21383;-58
2022/06/12 10:00:29;;;;;;;12.97;10.40;;;;;;;24.85;100.00;99686.83;1703865;83;21131;-59
2022/06/12 10:03:24;;;;;;;13.47;10.33;;;;;;;24.93;100.00;99684.86;1667122;83;21074;-57
2022/06/12 10:06:04;;;;;;;14.60;11.53;;;;;;;25.07;100.00;99682.99;1710861;83;21347;-59
2022/06/12 10:08:38;;;;;;;14.00;12.40;;;;;;;25.34;100.00;99685.48;1698443;83;21263;-58
2022/06/12 10:11:18;;;;;;;13.83;12.37;;;;;;;25.58;100.00;99676.77;1670925;83;21066;-58
2022/06/12 10:13:55;;;;;;;15.87;13.83;;;;;;;25.77;100.00;99671.33;1703450;82;21016;-58
2022/06/12 10:16:27;;;;;;;14.67;13.17;;;;;;;25.92;100.00;99660.36;1705449;83;21008;-58
2022/06/12 10:19:05;;;;;;;18.67;14.97;;;;;;;26.02;100.00;99651.32;1702839;82;20993;-63
2022/06/12 10:21:35;;;;;;;18.83;16.27;;;;;;;26.15;100.00;99652.40;1690185;83;21323;-57
2022/06/12 10:24:04;;;;;;;18.67;16.57;;;;;;;26.24;100.00;99653.25;1697397;83;21028;-58
2022/06/12 10:26:32;;;;;;;21.13;16.33;;;;;;;26.35;100.00;99652.48;1703442;83;21075;-62
2022/06/12 10:29:10;;;;;;;23.53;17.10;;;;;;;26.44;100.00;99648.79;1715150;83;21122;-57
2022/06/12 10:31:57;;;;;;;23.37;17.70;;;;;;;26.59;100.00;99642.30;1714552;83;21015;-57
2022/06/12 10:34:29;;;;;;;19.53;17.17;;;;;;;26.73;100.00;99643.58;1698231;83;21238;-57
2022/06/12 10:36:59;;;;;;;19.47;17.13;;;;;;;26.91;100.00;99637.79;1700051;83;21533;-56
2022/06/12 10:39:27;;;;;;;19.30;17.20;;;;;;;27.09;100.00;99633.32;1689304;83;20929;-57
2022/06/12 10:41:58;;;;;;;18.80;16.37;;;;;;;27.35;100.00;99632.09;1696470;83;21097;-58
2022/06/12 10:44:45;;;;;;;21.97;17.67;;;;;;;27.66;100.00;99626.69;1708854;83;21133;-59
2022/06/12 10:47:28;;;;;;;19.33;16.93;;;;;;;28.10;100.00;99613.58;1697082;83;21435;-56
2022/06/12 10:50:19;;;;;;;21.47;17.20;;;;;;;28.73;100.00;99618.59;1700248;83;21065;-63
2022/06/12 10:53:03;;;;;;;20.12;17.77;;;;;;;29.35;100.00;99611.34;1713107;83;21075;-56
2022/06/12 10:55:51;;;;;;;18.57;16.62;;;;;;;29.93;100.00;99608.95;1704307;83;21024;-64
2022/06/12 10:58:47;;;;;;;18.25;16.37;;;;;;;30.42;100.00;99608.66;1667269;83;21490;-64
2022/06/12 11:01:46;;;;;;;18.98;16.93;;;;;;;30.94;97.64;99606.75;1706825;83;21708;-57
2022/06/12 11:04:42;;;;;;;18.27;16.40;;;;;;;31.56;94.16;99604.06;1705687;83;20996;-57
2022/06/12 11:07:29;;;;;;;19.60;17.27;;;;;;;32.34;83.23;99592.05;1704240;82;21573;-59
2022/06/12 11:10:46;;;;;;;17.15;15.18;;;;;;;33.10;70.21;99598.25;1718582;81;20998;-57
2022/06/12 11:13:47;;;;;;;18.20;16.17;;;;;;;33.60;63.34;99598.03;1705633;81;21080;-62
2022/06/12 11:16:35;;;;;;;19.17;15.63;;;;;;;34.06;56.39;99598.25;1705630;83;21486;-56
2022/06/12 11:19:09;;;;;;;18.48;16.52;;;;;;;34.25;56.14;99601.51;1708228;81;21231;-57
2022/06/12 11:21:44;;;;;;;17.90;15.13;;;;;;;34.39;53.11;99604.45;1698832;83;21048;-60
2022/06/12 11:24:16;;;;;;;17.48;15.63;;;;;;;34.46;50.43;99599.75;1710656;83;20980;-57
2022/06/12 11:27:18;;;;;;;16.62;14.83;;;;;;;34.62;48.01;99594.45;1720698;81;21035;-57
2022/06/12 11:30:07;;;;;;;17.00;15.20;;;;;;;34.92;46.86;99585.66;1718135;81;21252;-65
2022/06/12 11:32:57;;;;;;;19.00;15.10;;;;;;;35.26;40.69;99579.03;1706668;82;21001;-58
2022/06/12 11:35:39;;;;;;;17.25;14.75;;;;;;;35.46;41.07;99584.55;1715814;81;21078;-64
2022/06/12 11:38:11;;;;;;;16.25;14.55;;;;;;;35.45;41.50;99569.41;1704448;82;21060;-58
2022/06/12 11:41:08;;;;;;;14.73;13.15;;;;;;;35.49;40.71;99566.20;1679978;83;21512;-57
2022/06/12 11:43:42;;;;;;;15.40;13.70;;;;;;;35.60;39.92;99556.08;1629379;83;21322;-59
2022/06/12 11:46:20;;;;;;;14.23;12.70;;;;;;;35.81;41.08;99550.92;1722044;83;21729;-56
2022/06/12 11:49:15;;;;;;;15.28;12.80;;;;;;;36.17;37.43;99541.82;1700561;81;20996;-59
2022/06/12 11:52:23;;;;;;;14.03;12.63;;;;;;;36.50;35.05;99530.91;1708465;83;21443;-56
2022/06/12 11:55:10;;;;;;;14.00;12.60;;;;;;;36.62;33.92;99527.70;1704913;82;21516;-60
2022/06/12 11:58:01;;;;;;;11.93;10.58;;;;;;;36.61;33.36;99523.44;1699017;83;21688;-57
2022/06/12 12:00:46;;;;;;;14.58;11.38;;;;;;;36.61;33.02;99514.70;1715776;83;21093;-56
2022/06/12 12:04:02;;;;;;;13.25;11.25;;;;;;;36.50;32.95;99517.34;1678494;81;21642;-57
2022/06/12 12:07:14;;;;;;;13.70;11.68;;;;;;;36.17;33.84;99521.47;1716886;81;21051;-56
2022/06/12 12:09:55;;;;;;;14.60;13.10;;;;;;;35.80;33.71;99527.64;1721307;83;20956;-57
2022/06/12 12:12:30;;;;;;;14.43;12.90;;;;;;;35.39;33.26;99524.05;1681381;83;21427;-59
2022/06/12 12:15:00;;;;;;;14.05;12.63;;;;;;;35.22;34.93;99527.50;1722884;81;21074;-56